createdAt,value
2022-08-19T05:16:16.503Z,100.00
2022-08-19T05:19:22.708Z,100.00
2022-08-19T05:22:28.704Z,100.00
2022-08-19T05:25:20.591Z,100.00
2022-08-19T05:28:09.257Z,100.00
2022-08-19T05:30:57.875Z,100.00
2022-08-19T05:33:48.549Z,100.00
2022-08-19T05:36:40.642Z,100.00
2022-08-19T05:39:31.488Z,100.00
2022-08-19T05:42:21.150Z,100.00
2022-08-19T05:45:10.904Z,100.00
2022-08-19T05:47:59.539Z,100.00
2022-08-19T05:50:51.113Z,100.00
2022-08-19T05:53:39.806Z,100.00
2022-08-19T05:56:28.572Z,100.00
2022-08-19T05:59:18.154Z,100.00
2022-08-19T06:02:08.502Z,100.00
2022-08-19T06:04:57.115Z,100.00
2022-08-19T06:07:47.766Z,100.00
2022-08-19T06:10:37.785Z,100.00
2022-08-19T06:13:26.742Z,100.00
2022-08-19T06:16:23.182Z,100.00
2022-08-19T06:19:13.675Z,100.00
2022-08-19T06:22:02.677Z,100.00
2022-08-19T06:24:53.562Z,100.00
2022-08-19T06:28:11.481Z,100.00
2022-08-19T06:30:51.012Z,100.00
2022-08-19T06:33:40.011Z,100.00
2022-08-19T06:36:32.189Z,99.25
2022-08-19T06:39:23.787Z,98.99
2022-08-19T06:42:17.669Z,97.39
2022-08-19T06:45:09.625Z,97.10
2022-08-19T06:48:00.092Z,92.18
2022-08-19T06:50:52.452Z,90.83
2022-08-19T06:53:41.401Z,89.91
2022-08-19T06:56:32.718Z,90.23
2022-08-19T06:59:25.264Z,90.02
2022-08-19T07:02:13.847Z,87.66
2022-08-19T07:05:06.679Z,87.16
2022-08-19T07:07:57.503Z,86.13
2022-08-19T07:10:48.884Z,85.13
2022-08-19T07:13:38.671Z,86.78
2022-08-19T07:16:29.397Z,86.78
2022-08-19T07:19:19.328Z,87.52
2022-08-19T07:22:13.105Z,88.15
2022-08-19T07:25:03.712Z,87.52
2022-08-19T07:27:54.161Z,88.48
2022-08-19T07:30:43.169Z,88.10
2022-08-19T07:33:37.462Z,82.74
2022-08-19T07:36:30.044Z,80.20
2022-08-19T07:39:21.248Z,78.15
2022-08-19T07:42:11.429Z,73.73
2022-08-19T07:45:02.379Z,73.76
2022-08-19T07:47:51.407Z,74.22
2022-08-19T07:50:41.380Z,71.82
2022-08-19T07:53:31.087Z,72.74
2022-08-19T07:56:20.828Z,73.71
2022-08-19T07:59:10.097Z,73.38
2022-08-19T08:02:00.633Z,71.73
2022-08-19T08:05:06.806Z,72.54
2022-08-19T08:08:13.484Z,71.31
2022-08-19T08:11:02.332Z,71.53
2022-08-19T08:14:01.043Z,70.90
2022-08-19T08:16:53.255Z,70.68
2022-08-19T08:19:43.322Z,71.35
2022-08-19T08:22:50.000Z,70.82
2022-08-19T08:25:40.356Z,69.91
2022-08-19T08:28:30.038Z,69.79
2022-08-19T08:31:19.545Z,69.66
2022-08-19T08:34:09.369Z,66.74
2022-08-19T08:36:58.230Z,66.24
2022-08-19T08:39:46.854Z,65.17
2022-08-19T08:42:43.044Z,64.96
2022-08-19T08:45:32.984Z,62.76
2022-08-19T08:48:38.010Z,61.57
2022-08-19T08:51:34.542Z,60.02
2022-08-19T08:54:34.800Z,60.04
2022-08-19T08:57:30.576Z,59.33
2022-08-19T09:00:30.454Z,58.60
2022-08-19T09:03:21.258Z,58.44
2022-08-19T09:06:17.437Z,58.01
2022-08-19T09:09:11.813Z,57.65
2022-08-19T09:12:07.900Z,57.22
2022-08-19T09:15:02.658Z,55.39
2022-08-19T09:17:52.548Z,54.68
2022-08-19T09:20:41.346Z,52.93
2022-08-19T09:23:31.616Z,53.13
2022-08-19T09:26:25.016Z,52.39
2022-08-19T09:29:33.513Z,52.79
2022-08-19T09:32:26.618Z,51.90
2022-08-19T09:35:17.587Z,50.79
2022-08-19T09:38:06.350Z,51.43
2022-08-19T09:40:54.877Z,52.58
2022-08-19T09:43:47.946Z,51.99
2022-08-19T09:46:37.108Z,52.38
2022-08-19T09:49:25.597Z,52.98
2022-08-19T09:52:16.428Z,53.52
2022-08-19T09:55:07.235Z,54.01
2022-08-19T09:57:57.364Z,54.22
2022-08-19T10:00:50.967Z,54.28
2022-08-19T10:03:40.263Z,52.80
2022-08-19T10:06:44.040Z,53.79
2022-08-19T10:09:36.500Z,52.59
2022-08-19T10:12:25.564Z,51.71
2022-08-19T10:15:17.720Z,51.34
2022-08-19T10:18:19.464Z,51.03
2022-08-19T10:21:11.726Z,51.62
2022-08-19T10:24:04.680Z,51.24
2022-08-19T10:26:57.141Z,50.19
2022-08-19T10:29:48.888Z,51.04
2022-08-19T10:32:37.468Z,50.00
2022-08-19T10:35:26.492Z,50.86
2022-08-19T10:38:15.900Z,50.68
2022-08-19T10:41:12.448Z,50.66
2022-08-19T10:44:05.484Z,49.79
2022-08-19T10:46:53.995Z,49.39
2022-08-19T10:50:03.149Z,49.87
2022-08-19T10:52:52.136Z,49.33
2022-08-19T10:56:01.339Z,48.73
2022-08-19T10:58:49.893Z,46.46
2022-08-19T11:01:39.777Z,46.40
2022-08-19T11:04:29.573Z,45.13
2022-08-19T11:07:18.294Z,43.58
2022-08-19T11:10:11.488Z,43.78
2022-08-19T11:13:01.657Z,43.52
2022-08-19T11:15:58.477Z,43.76
2022-08-19T11:18:50.864Z,43.33
2022-08-19T11:21:40.849Z,43.39
2022-08-19T11:24:29.660Z,44.64
2022-08-19T11:27:18.399Z,44.05
2022-08-19T11:30:08.652Z,44.17
2022-08-19T11:33:03.417Z,44.34
2022-08-19T11:35:53.329Z,45.13
2022-08-19T11:38:41.819Z,45.16
2022-08-19T11:41:30.471Z,44.50
2022-08-19T11:44:19.175Z,44.42
2022-08-19T11:47:08.801Z,42.66
2022-08-19T11:49:58.119Z,42.36
2022-08-19T11:52:50.493Z,42.82
2022-08-19T11:55:44.265Z,43.84
2022-08-19T11:58:33.145Z,43.60
2022-08-19T12:01:23.744Z,43.66
2022-08-19T12:04:12.772Z,44.02
2022-08-19T12:07:01.385Z,44.70
2022-08-19T12:09:51.655Z,45.77
2022-08-19T12:12:43.353Z,45.78
2022-08-19T12:15:37.052Z,45.08
2022-08-19T12:18:25.915Z,44.65
2022-08-19T12:21:14.830Z,44.57
2022-08-19T12:24:05.447Z,45.38
2022-08-19T12:27:00.954Z,45.61
2022-08-19T12:29:51.548Z,45.68
2022-08-19T12:32:41.286Z,45.48
2022-08-19T12:35:31.435Z,44.95
2022-08-19T12:38:20.510Z,44.70
2022-08-19T12:41:13.088Z,45.01
2022-08-19T12:44:03.039Z,45.51
2022-08-19T12:46:53.944Z,46.23
2022-08-19T12:49:54.648Z,45.86
2022-08-19T12:52:44.211Z,46.15
2022-08-19T12:55:32.782Z,46.02
2022-08-19T12:58:24.259Z,45.85
2022-08-19T13:01:18.050Z,46.16
2022-08-19T13:04:11.285Z,46.16
2022-08-19T13:07:00.435Z,45.48
2022-08-19T13:09:49.016Z,46.02
2022-08-19T13:12:37.582Z,45.27
2022-08-19T13:15:26.130Z,44.01
2022-08-19T13:18:16.060Z,42.72
2022-08-19T13:21:06.032Z,41.87
2022-08-19T13:23:55.042Z,41.55
2022-08-19T13:26:43.581Z,41.16
2022-08-19T13:29:49.423Z,41.14
2022-08-19T13:32:55.508Z,41.39
2022-08-19T13:35:48.207Z,42.01
2022-08-19T13:38:37.140Z,42.51
2022-08-19T13:41:25.636Z,42.48
2022-08-19T13:44:14.530Z,42.77
2022-08-19T13:47:06.566Z,42.39
2022-08-19T13:49:55.238Z,43.32
2022-08-19T13:52:45.638Z,43.21
2022-08-19T13:55:34.184Z,43.44
2022-08-19T13:58:23.192Z,43.04
2022-08-19T14:01:12.525Z,42.67
2022-08-19T14:04:01.563Z,42.96
2022-08-19T14:06:50.130Z,42.53
2022-08-19T14:09:40.064Z,41.44
2022-08-19T14:12:29.145Z,39.35
2022-08-19T14:15:18.287Z,40.23
2022-08-19T14:18:06.909Z,39.60
2022-08-19T14:20:56.373Z,40.31
2022-08-19T14:23:45.918Z,40.96
2022-08-19T14:26:35.938Z,41.48
2022-08-19T14:29:24.783Z,40.06
2022-08-19T14:32:16.735Z,40.64
2022-08-19T14:35:08.106Z,41.12
2022-08-19T14:37:58.459Z,39.23
2022-08-19T14:40:47.514Z,38.63
2022-08-19T14:43:37.459Z,39.56
2022-08-19T14:46:28.266Z,39.06
2022-08-19T14:49:19.424Z,38.97
2022-08-19T14:52:08.009Z,38.66
2022-08-19T14:54:56.584Z,36.42
2022-08-19T14:57:46.959Z,37.75
2022-08-19T15:00:37.142Z,37.60
2022-08-19T15:03:25.971Z,37.03
2022-08-19T15:06:14.744Z,37.11
2022-08-19T15:09:04.565Z,37.16
2022-08-19T15:11:53.168Z,37.27
2022-08-19T15:14:43.121Z,37.26
2022-08-19T15:17:45.432Z,37.60
2022-08-19T15:20:42.073Z,38.09
2022-08-19T15:23:31.326Z,37.80
2022-08-19T15:26:20.865Z,37.21
2022-08-19T15:29:09.495Z,38.55
2022-08-19T15:31:58.448Z,38.43
2022-08-19T15:34:49.889Z,38.30
2022-08-19T15:37:38.424Z,38.52
2022-08-19T15:40:28.377Z,38.88
2022-08-19T15:43:17.070Z,39.11
2022-08-19T15:46:05.726Z,38.16
2022-08-19T15:48:56.066Z,38.30
2022-08-19T15:51:51.818Z,38.40
2022-08-19T15:54:40.981Z,38.83
2022-08-19T15:57:47.224Z,38.46
2022-08-19T16:00:53.380Z,38.52
2022-08-19T16:04:01.770Z,37.64
2022-08-19T16:06:53.689Z,38.58
2022-08-19T16:09:42.332Z,37.79
2022-08-19T16:12:30.936Z,38.38
2022-08-19T16:15:20.966Z,37.85
2022-08-19T16:18:09.502Z,38.63
2022-08-19T16:20:58.046Z,38.20
2022-08-19T16:23:49.624Z,38.66
2022-08-19T16:26:38.280Z,38.32
2022-08-19T16:29:34.790Z,38.15
2022-08-19T16:32:27.651Z,38.39
2022-08-19T16:35:16.231Z,38.38
2022-08-19T16:38:06.755Z,38.97
2022-08-19T16:40:57.101Z,39.56
2022-08-19T16:43:45.763Z,38.83
2022-08-19T16:46:34.307Z,39.31
2022-08-19T16:49:54.611Z,40.09
2022-08-19T16:52:35.757Z,39.92
2022-08-19T16:55:24.349Z,40.50
2022-08-19T16:58:14.228Z,39.60
2022-08-19T17:01:04.478Z,39.78
2022-08-19T17:03:53.064Z,39.18
2022-08-19T17:06:41.644Z,39.58
2022-08-19T17:09:32.768Z,39.52
2022-08-19T17:12:21.302Z,39.42
2022-08-19T17:15:11.331Z,40.05
2022-08-19T17:18:00.805Z,39.01
2022-08-19T17:20:50.453Z,39.29
2022-08-19T17:23:44.257Z,40.34
2022-08-19T17:26:33.133Z,40.45
2022-08-19T17:29:22.160Z,41.14
2022-08-19T17:32:12.066Z,41.09
2022-08-19T17:35:00.634Z,41.32
2022-08-19T17:37:50.524Z,41.87
2022-08-19T17:40:39.245Z,42.28
2022-08-19T17:43:32.784Z,42.79
2022-08-19T17:46:22.976Z,42.72
2022-08-19T17:49:13.029Z,43.36
2022-08-19T17:52:02.119Z,44.92
2022-08-19T17:54:50.957Z,46.42
2022-08-19T17:57:46.048Z,53.24
2022-08-19T18:00:35.585Z,57.83
2022-08-19T18:03:26.396Z,63.52
2022-08-19T18:06:17.648Z,65.12
2022-08-19T18:09:06.851Z,65.91
2022-08-19T18:11:57.059Z,68.31
2022-08-19T18:14:46.360Z,69.11
2022-08-19T18:17:36.915Z,72.12
2022-08-19T18:20:25.522Z,73.38
2022-08-19T18:23:45.044Z,75.31
2022-08-19T18:26:24.304Z,74.40
2022-08-19T18:29:13.428Z,76.26
2022-08-19T18:32:01.980Z,79.46
2022-08-19T18:34:50.535Z,82.38
2022-08-19T18:37:39.446Z,85.21
2022-08-19T18:40:48.620Z,85.35
2022-08-19T18:43:57.121Z,86.58
2022-08-19T18:47:03.161Z,86.31
2022-08-19T18:49:51.821Z,87.15
2022-08-19T18:52:40.955Z,87.47
2022-08-19T18:55:30.933Z,88.36
2022-08-19T18:58:21.572Z,89.51
2022-08-19T19:01:15.345Z,89.60
2022-08-19T19:04:06.375Z,89.36
2022-08-19T19:06:55.283Z,89.50
2022-08-19T19:09:43.965Z,89.40
2022-08-19T19:12:36.996Z,89.55
2022-08-19T19:15:25.591Z,89.28
2022-08-19T19:18:14.304Z,89.76
2022-08-19T19:21:02.910Z,91.25
2022-08-19T19:23:52.610Z,91.75
2022-08-19T19:26:41.244Z,92.41
2022-08-19T19:29:31.271Z,92.50
2022-08-19T19:32:21.467Z,93.52
2022-08-19T19:35:10.627Z,92.96
2022-08-19T19:37:59.865Z,92.17
2022-08-19T19:40:48.413Z,91.70
2022-08-19T19:43:40.817Z,91.31
2022-08-19T19:46:32.484Z,92.85
2022-08-19T19:49:20.990Z,91.59
2022-08-19T19:52:13.843Z,91.79
2022-08-19T19:55:02.613Z,89.55
2022-08-19T19:57:53.503Z,88.16
2022-08-19T20:00:42.283Z,88.70
2022-08-19T20:03:32.351Z,88.88
2022-08-19T20:06:20.867Z,84.29
2022-08-19T20:09:10.375Z,84.72
2022-08-19T20:11:59.180Z,84.35
2022-08-19T20:14:47.824Z,80.06
2022-08-19T20:17:42.357Z,79.65
2022-08-19T20:20:33.287Z,75.52
2022-08-19T20:23:23.891Z,71.63
2022-08-19T20:26:12.478Z,64.81
2022-08-19T20:29:38.257Z,66.04
2022-08-19T20:32:28.043Z,63.70
2022-08-19T20:35:20.645Z,62.88
2022-08-19T20:38:10.709Z,62.74
2022-08-19T20:40:59.276Z,62.96
2022-08-19T20:43:48.209Z,62.30
2022-08-19T20:46:36.837Z,61.65
2022-08-19T20:49:27.005Z,61.62
2022-08-19T20:52:16.646Z,61.17
2022-08-19T20:55:07.407Z,61.98
2022-08-19T20:57:56.486Z,61.24
2022-08-19T21:00:46.184Z,61.69
2022-08-19T21:03:42.502Z,61.18
2022-08-19T21:06:32.059Z,61.31
2022-08-19T21:09:20.868Z,61.49
2022-08-19T21:12:13.609Z,62.35
2022-08-19T21:15:02.193Z,62.12
2022-08-19T21:17:51.806Z,62.96
2022-08-19T21:20:41.350Z,63.19
2022-08-19T21:23:31.046Z,63.99
2022-08-19T21:26:19.644Z,64.52
2022-08-19T21:29:09.512Z,64.81
2022-08-19T21:31:58.021Z,64.93
2022-08-19T21:34:47.271Z,65.29
2022-08-19T21:37:36.667Z,65.45
2022-08-19T21:40:25.269Z,66.06
2022-08-19T21:43:13.892Z,66.64
2022-08-19T21:46:04.024Z,67.00
2022-08-19T21:48:52.616Z,67.12
2022-08-19T21:51:41.341Z,66.84
2022-08-19T21:54:38.290Z,67.40
2022-08-19T21:57:27.498Z,67.84
2022-08-19T22:00:18.910Z,67.54
2022-08-19T22:03:08.936Z,67.95
2022-08-19T22:05:58.587Z,67.72
2022-08-19T22:08:47.734Z,68.07
2022-08-19T22:11:36.346Z,67.82
2022-08-19T22:14:24.890Z,68.11
2022-08-19T22:17:14.612Z,68.10
2022-08-19T22:20:06.086Z,68.37
2022-08-19T22:22:57.861Z,68.58
2022-08-19T22:25:47.805Z,68.87
2022-08-19T22:28:36.338Z,69.47
2022-08-19T22:31:24.825Z,70.31
2022-08-19T22:34:13.454Z,70.68
2022-08-19T22:37:03.388Z,70.64
2022-08-19T22:39:52.004Z,70.71
2022-08-19T22:42:40.699Z,70.92
2022-08-19T22:45:30.144Z,71.39
2022-08-19T22:48:20.927Z,71.26
2022-08-19T22:51:26.799Z,71.10
2022-08-19T22:54:18.384Z,71.23
2022-08-19T22:57:06.983Z,71.51
2022-08-19T22:59:56.099Z,71.77
2022-08-19T23:02:52.223Z,72.05
2022-08-19T23:05:41.258Z,72.51
2022-08-19T23:08:29.837Z,72.78
2022-08-19T23:11:19.727Z,72.85
2022-08-19T23:14:08.749Z,73.61
2022-08-19T23:16:59.157Z,73.60
2022-08-19T23:19:48.616Z,73.54
2022-08-19T23:22:39.406Z,74.03
2022-08-19T23:25:32.740Z,73.76
2022-08-19T23:28:40.514Z,74.23
2022-08-19T23:31:29.270Z,74.68
2022-08-19T23:34:18.237Z,74.52
2022-08-19T23:37:06.904Z,74.59
2022-08-19T23:39:55.478Z,75.56
2022-08-19T23:42:46.555Z,75.65
2022-08-19T23:45:38.646Z,75.62
2022-08-19T23:48:28.349Z,76.15
2022-08-19T23:51:17.600Z,76.20
2022-08-19T23:54:06.193Z,76.73
2022-08-19T23:56:54.754Z,76.74
2022-08-19T23:59:45.158Z,76.98
